Simmons Army Air Field
KFBG : now visible

Airfield :











YOU CAN JOIN US ON...

 
LOGIN :

Register | Disclaimer

   EN    FR    IT 

 









Legend :    VFR   Marginal VFR   IFR   Intensive IFR   Very Intensive IFR
Visi :
Ceiling :
>= 8 km
>= 3000ft
5 to 8 km
1000 to 3000 ft
1500m to 5 km
500 to 1000 ft
800 to 1500m
200 to 500 ft
< 800m
< 200 ft
Symbols :   Thunderstorms  Fog  Heavy snow  Heavy precipitations  Wind > 20 kt






- Airport Elevation : 244 ft


KFBG - Simmons Army Air Field

CURRENT METAR :
  • 200924Z AUTO 08010KT 10SM RA OVC004 20/20 A2962 RMK AO2 SLP032

EXPIRED METARs :
  • 200858Z AUTO 09009KT 10SM -RA BKN004 OVC015 19/19 A2964 RMK AO2 SLP039
  • 200834Z AUTO 10009KT 10SM -RA BKN003 OVC010 19/19 A2966 RMK AO2 BKN V OVC SLP045
  • 200756Z AUTO 10009KT 10SM -RA OVC003 19/19 A2968 RMK AO2 RAE08DZB08E09RAB43 SLP052 P0001 T01880188
  • 200743Z AUTO 10008KT 10SM -RA OVC003 19/19 A2969 RMK AO2 RAE08DZB08E09RAB43 SLP056
  • 200731Z AUTO 10008G15KT 10SM OVC003 19/19 A2970 RMK AO2 RAE08DZB08E09 SLP059
  • 200723Z AUTO 10011KT 10SM OVC004 19/19 A2970 RMK AO2 RAE08DZB08E09 PRESFR SLP059
  • 200709Z AUTO 10011G19KT 10SM OVC004 18/18 A2972 RMK AO2 RAE08DZB08E09 SLP066
  • 200656Z AUTO 09010KT 10SM -RA OVC004 18/18 A2973 RMK AO2 RAB02 SLP069 P0010 T01810181

TAF TAF KFBG
Valid from the 20 at 09:00 until the 21 at 15:00 UTC


200900Z 2009/2115 10012G18KT 8000 -RA BKN003 OVC010 QNH2961INS
TEMPO 2009/2010 09012G18KT 6000 RA BKN004
BECMG 2015/2016 26010G20KT 8000 -RA OVC006 QNH2966INS
BECMG 2018/2019 32018KT 9999 NSW OVC015 QNH2972INS
BECMG 2023/2024 VRB06KT 9999 SCT010 BKN025 QNH2985INS
BECMG 2113/2114 31009KT 9999 SCT015 QNH3005INS TX22/2014Z TN14/2109Z



MET'MAP, your aeronautical weather chart ! - Copyright ORBIFLY December 2007 - Disclaimer

ORBIFLY MET'MAP TEAM :

Programming & Development : Alexandra Zaïnal
Concept & Development : Baudouin d'Aumeries
Co-Development & Prog : Marc-Olivier Méhu
Technical & hardware support : Manuel Goepfert

Contact : metmap@orbifly.com




SOURCES & CREDITS :

   NOAA       Earth
Advisory